METAR Data
IDs: Format: Raw Decoded Include TAF

Data at: 2022 UTC 14 Dec 2018

KT35 142015Z AUTO 32018G26KT 7SM OVC018 08/04 A3002 RMK AO2 T00770044
KT35 141955Z AUTO 32013G22KT 10SM OVC016 08/04 A3003 RMK AO2 T00800043
KT35 141935Z AUTO 32015G22KT 10SM OVC016 08/04 A3002 RMK AO2 T00770040
KT35 141915Z AUTO 32018G23KT 10SM OVC016 08/04 A3002 RMK AO2 T00770041
KT35 141855Z AUTO 32011G22KT 10SM OVC016 08/04 A3002 RMK AO2 T00760040
KT35 141835Z AUTO 31013G22KT 10SM OVC016 08/04 A3001 RMK AO2 T00760038
KT35 141815Z AUTO 31013G23KT 10SM OVC016 08/04 A3002 RMK AO2 T00760040
KT35 141755Z AUTO 32014G20KT 10SM OVC016 07/04 A3003 RMK AO2 T00730040 10075 20060
KT35 141735Z AUTO 31014G23KT 10SM OVC016 07/04 A3004 RMK AO2 T00710038
KT35 141715Z AUTO 33016G27KT 10SM OVC016 07/04 A3004 RMK AO2 T00720037
KT35 141655Z AUTO 32019G25KT 10SM OVC016 07/04 A3004 RMK AO2 T00720037
KT35 141635Z AUTO 31015G21KT 10SM OVC016 07/04 A3003 RMK AO2 T00710037
KT35 141615Z AUTO 32015G22KT 10SM OVC016 07/04 A3003 RMK AO2 T00710037
KT35 141555Z AUTO 33017G23KT 10SM OVC016 07/04 A3002 RMK AO2 T00700037
KT35 141535Z AUTO 32016G24KT 10SM OVC016 07/04 A3001 RMK AO2 T00700037
KT35 141515Z AUTO 32020G26KT 10SM OVC016 07/04 A2998 RMK AO2 T00710038
KT35 141455Z AUTO 32019G27KT 10SM OVC016 07/04 A2998 RMK AO2 LTG DSNT E T00670038
KT35 141435Z AUTO 32018G26KT 10SM OVC016 07/04 A2997 RMK AO2 LTG DSNT NE T00660036
KT35 141415Z AUTO 32020G25KT 10SM OVC016 07/04 A2997 RMK AO2 T00650038
KT35 141355Z AUTO 31017G28KT 10SM OVC014 07/04 A2996 RMK AO2 T00650040
KT35 141335Z AUTO 31019G25KT 10SM OVC014 06/04 A2995 RMK AO2 T00620041
KT35 141315Z AUTO 31020G24KT 10SM OVC010 06/05 A2995 RMK AO2 T00610045
KT35 141255Z AUTO 31015G22KT 10SM OVC010 06/05 A2994 RMK AO2 LTG DSNT NE T00600048
KT35 141235Z AUTO 31015G23KT 10SM OVC010 06/05 A2994 RMK AO2 T00610048
KT35 141215Z AUTO 31015G22KT 10SM OVC010 06/05 A2992 RMK AO2 LTG DSNT NE T00620050
KT35 141155Z AUTO 31018G22KT 10SM OVC010 07/05 A2991 RMK AO2 LTG DSNT NE T00650051 10066 20055
KT35 141135Z AUTO 31020G25KT 10SM OVC010 07/05 A2990 RMK AO2 T00660052
KT35 141115Z AUTO 31017G22KT 10SM OVC010 07/05 A2989 RMK AO2 T00650052
KT35 141055Z AUTO 31017G23KT 10SM -DZ OVC012 07/05 A2988 RMK AO2 T00650050
KT35 141035Z AUTO 31016G23KT 10SM -RA OVC012 06/05 A2987 RMK AO2 T00620049
KT35 141015Z AUTO 31015G26KT 7SM DZ OVC012 06/05 A2986 RMK AO2 T00610047
KT35 140955Z AUTO 31014G26KT 10SM OVC012 06/04 A2986 RMK AO2 T00610043
KT35 140935Z AUTO 31016G21KT 10SM OVC012 06/04 A2985 RMK AO2 T00600040
KT35 140915Z AUTO 30015G24KT 10SM OVC012 06/04 A2985 RMK AO2 LTG DSNT E T00600038
KT35 140855Z AUTO 30017G21KT 10SM OVC012 06/04 A2984 RMK AO2 T00600040
KT35 140835Z AUTO 30015G20KT 10SM OVC012 06/04 A2984 RMK AO2 T00580040
KT35 140815Z AUTO 30016G21KT 10SM OVC012 06/04 A2984 RMK AO2 T00600041
KT35 140755Z AUTO 30016G20KT 10SM OVC012 06/05 A2984 RMK AO2 T00580045
KT35 140735Z AUTO 30019G23KT 10SM -DZ OVC014 06/04 A2984 RMK AO2 T00570042
KT35 140715Z AUTO 29016G24KT 10SM OVC012 06/04 A2984 RMK AO2 T00600040
KT35 140655Z AUTO 29015G21KT 10SM BKN012 OVC018 06/04 A2983 RMK AO2 T00600040
KT35 140635Z AUTO 30020G27KT 10SM OVC018 06/04 A2982 RMK AO2 T00590038
KT35 140615Z AUTO 29019G26KT 10SM BKN010 OVC016 06/04 A2983 RMK AO2 T00560040
KT35 140555Z AUTO 29016G24KT 7SM BKN010 OVC018 06/04 A2983 RMK AO2 T00550042 10104 20055 402110055
KT35 140535Z AUTO 29014G24KT 10SM BKN010 OVC016 06/04 A2983 RMK AO2 T00560041
KT35 140515Z AUTO 28015G23KT 10SM -DZ OVC012 06/04 A2983 RMK AO2 T00580040
KT35 140455Z AUTO 29017G21KT 10SM OVC014 06/04 A2982 RMK AO2 T00600040
KT35 140435Z AUTO 28013G21KT 10SM BKN014 OVC023 06/04 A2982 RMK AO2 T00610040
KT35 140415Z AUTO 29014G25KT 10SM -RA OVC016 06/04 A2982 RMK AO2 T00620041
KT35 140355Z AUTO 28016G21KT 10SM -DZ OVC020 07/04 A2982 RMK AO2 T00670036
KT35 140335Z AUTO 28011G19KT 10SM OVC020 07/03 A2982 RMK AO2 T00700030
KT35 140315Z AUTO 28016G23KT 10SM OVC020 07/03 A2982 RMK AO2 T00700030
KT35 140255Z AUTO 28011G18KT 10SM OVC020 07/03 A2983 RMK AO2 T00710031
KT35 140235Z AUTO 28010KT 10SM OVC022 07/03 A2983 RMK AO2 T00730030
KT35 140215Z AUTO 29012G18KT 10SM OVC024 08/03 A2983 RMK AO2 T00750028
KT35 140155Z AUTO 29016G20KT 10SM OVC026 08/03 A2982 RMK AO2 T00750027
KT35 140135Z AUTO 28009G15KT 10SM SCT024 08/03 A2982 RMK AO2 T00760028
KT35 140115Z AUTO 29013G18KT 10SM CLR 08/03 A2981 RMK AO2 T00770026
KT35 140055Z AUTO 28012G20KT 10SM CLR 08/03 A2982 RMK AO2 LTG DSNT N T00800026
KT35 140035Z AUTO 28016G23KT 10SM CLR 09/03 A2981 RMK AO2 T00880027
KT35 140015Z AUTO 28016G23KT 10SM CLR 09/03 A2980 RMK AO2 T00940033
KT35 132355Z AUTO 28021G28KT 10SM CLR 11/04 A2979 RMK AO2 T01060039 10211 20106
KT35 132335Z AUTO 28019G25KT 10SM CLR 13/05 A2978 RMK AO2 T01270047
KT35 132315Z AUTO 29014G23KT 10SM CLR 15/03 A2976 RMK AO2 T01460030
KT35 132255Z AUTO 28011G15KT 10SM CLR 16/02 A2975 RMK AO2 T01560023
KT35 132235Z AUTO 28015G25KT 10SM CLR 16/04 A2974 RMK AO2 T01610036
KT35 132215Z AUTO 27020G26KT 10SM CLR 18/03 A2973 RMK AO2 T01820025
KT35 132155Z AUTO 28016G28KT 10SM CLR 19/00 A2973 RMK AO2 T01920002
KT35 132135Z AUTO 27017G24KT 10SM CLR 20/00 A2971 RMK AO2 T01960001
KT35 132115Z AUTO 27017G21KT 10SM CLR 20/02 A2971 RMK AO2 LTG DSNT N AND NE T02000015
KT35 132055Z AUTO 27017G21KT 10SM SCT055 20/02 A2971 RMK AO2 LTG DSNT N T02030024
KT35 132035Z AUTO 25007G15KT 10SM BKN055 BKN070 21/07 A2970 RMK AO2 LTG DSNT N T02060071
KT35 132015Z AUTO 26011G16KT 10SM SCT100 SCT120 20/07 A2971 RMK AO2 T02040073
KT35 131955Z AUTO 28013G18KT 10SM BKN110 20/07 A2971 RMK AO2 LTG DSNT N T01950072
KT35 131935Z AUTO 27013G18KT 10SM BKN095 21/08 A2971 RMK AO2 LTG DSNT N T02070081
KT35 131915Z AUTO 29013G19KT 10SM BKN095 OVC110 20/08 A2970 RMK AO2 LTG DSNT N T01960079
KT35 131855Z AUTO 29014G19KT 10SM OVC095 20/09 A2971 RMK AO2 LTG DSNT NE T01980092
KT35 131835Z AUTO 27013G17KT 10SM OVC095 20/09 A2971 RMK AO2 T02020094
KT35 131815Z AUTO 26012G20KT 10SM BKN095 21/10 A2971 RMK AO2 T02050095
KT35 131755Z AUTO 27014G18KT 10SM CLR 21/11 A2971 RMK AO2 T02090113 10210 20159
KT35 131735Z AUTO 26010KT 10SM CLR 21/12 A2971 RMK AO2 T02080119
KT35 131715Z AUTO 25005KT 10SM CLR 20/13 A2972 RMK AO2 T02040129
KT35 131655Z AUTO 24008G16KT 10SM CLR 20/13 A2973 RMK AO2 LTG DSNT NE T01970130
KT35 131635Z AUTO 23010G14KT 10SM CLR 19/14 A2973 RMK AO2 T01940140
KT35 131615Z AUTO 21010KT 10SM SCT110 19/15 A2973 RMK AO2 T01890146
KT35 131555Z AUTO 22008KT 10SM SCT016 SCT110 18/15 A2973 RMK AO2 T01820148
KT35 131535Z AUTO 22009KT 10SM SCT014 SCT110 18/15 A2974 RMK AO2 T01800150
KT35 131515Z AUTO 21007KT 10SM SCT009 SCT014 SCT020 18/16 A2974 RMK AO2 LTG DSNT NE T01760160
KT35 131455Z AUTO 20006KT 10SM SCT012 SCT020 BKN110 18/17 A2974 RMK AO2 T01770166
KT35 131435Z AUTO 20005KT 10SM SCT090 BKN110 17/17 A2974 RMK AO2 T01730166
KT35 131415Z AUTO 15004KT 7SM BKN110 17/17 A2972 RMK AO2 T01700166
KT35 131355Z AUTO 17003KT 4SM BR SCT013 SCT019 BKN120 16/16 A2973 RMK AO2 T01620158
KT35 131335Z AUTO 00000KT M1/4SM FG BKN005 OVC012 16/16 A2973 RMK AO2 T01630159
KT35 131315Z AUTO 00000KT 7SM SCT005 BKN014 OVC020 17/16 A2972 RMK AO2 T01670162
KT35 131255Z AUTO 12003KT 7SM SCT005 BKN010 OVC018 17/16 A2972 RMK AO2 LTG DSNT E T01700164
KT35 131235Z AUTO 15004KT 10SM BKN011 OVC020 17/17 A2972 RMK AO2 LTG DSNT E T01710165
KT35 131215Z AUTO 00000KT 7SM OVC013 17/17 A2972 RMK AO2 LTG DSNT E T01710165
KT35 131155Z AUTO 00000KT 10SM SCT008 BKN013 OVC028 17/16 A2970 RMK AO2 T01720163 10185 20172
KT35 131135Z AUTO 16003KT 10SM SCT013 BKN019 OVC026 18/17 A2970 RMK AO2 T01790167
KT35 131115Z AUTO 17006KT 10SM BKN010 OVC022 18/17 A2971 RMK AO2 LTG DSNT E T01790167
KT35 131055Z AUTO 19005KT 10SM OVC010 19/17 A2971 RMK AO2 LTG DSNT E T01850168
KT35 131035Z AUTO 19003KT 10SM OVC010 18/17 A2971 RMK AO2 LTG DSNT E AND SE T01810169
KT35 131015Z AUTO 15003KT 10SM OVC010 18/17 A2972 RMK AO2 LTG DSNT NE AND E T01800170
KT35 130955Z AUTO 17003KT 10SM OVC010 18/17 A2972 RMK AO2 LTG DSNT NE AND E T01780167
KT35 130935Z AUTO 19004KT 10SM OVC010 18/17 A2973 RMK AO2 LTG DSNT E THRU S T01810168
KT35 130915Z AUTO 18004KT 10SM VCTS OVC010 18/17 A2973 RMK AO2 LTG DSNT NE THRU SE T01810168
KT35 130855Z AUTO 15005KT 10SM BKN010 BKN016 OVC023 18/17 A2973 RMK AO2 LTG DSNT ALQS T01810168
KT35 130835Z AUTO 16007KT 10SM BKN012 OVC016 18/17 A2975 RMK AO2 LTG DSNT NE AND SE T01810166